sensor_id;sensor_type;location;lat;lon;timestamp;pressure;altitude;pressure_sealevel;temperature;humidity
35226;BME280;21813;49.686;21.766;2023-04-20T00:01:52;98397.38;;;8.30;100.00
35226;BME280;21813;49.686;21.766;2023-04-20T00:04:17;98402.31;;;8.33;100.00
35226;BME280;21813;49.686;21.766;2023-04-20T00:06:44;98404.22;;;8.31;100.00
35226;BME280;21813;49.686;21.766;2023-04-20T00:09:12;98407.75;;;8.30;100.00
35226;BME280;21813;49.686;21.766;2023-04-20T00:11:40;98402.75;;;8.27;100.00
35226;BME280;21813;49.686;21.766;2023-04-20T00:14:06;98415.13;;;8.36;100.00
35226;BME280;21813;49.686;21.766;2023-04-20T00:16:33;98408.69;;;8.29;100.00
35226;BME280;21813;49.686;21.766;2023-04-20T00:18:59;98395.16;;;8.24;100.00
35226;BME280;21813;49.686;21.766;2023-04-20T00:21:26;98384.91;;;8.23;100.00
35226;BME280;21813;49.686;21.766;2023-04-20T00:23:52;98393.94;;;8.30;100.00
35226;BME280;21813;49.686;21.766;2023-04-20T00:26:19;98398.34;;;8.28;100.00
35226;BME280;21813;49.686;21.766;2023-04-20T00:28:45;98393.28;;;8.26;100.00
35226;BME280;21813;49.686;21.766;2023-04-20T00:31:11;98407.53;;;8.33;100.00
35226;BME280;21813;49.686;21.766;2023-04-20T00:33:37;98398.59;;;8.25;100.00
35226;BME280;21813;49.686;21.766;2023-04-20T00:36:04;98387.81;;;8.18;100.00
35226;BME280;21813;49.686;21.766;2023-04-20T00:38:30;98406.38;;;8.25;100.00
35226;BME280;21813;49.686;21.766;2023-04-20T00:40:56;98393.94;;;8.17;100.00
35226;BME280;21813;49.686;21.766;2023-04-20T00:43:22;98378.78;;;8.11;100.00
35226;BME280;21813;49.686;21.766;2023-04-20T00:45:49;98404.19;;;8.19;100.00
35226;BME280;21813;49.686;21.766;2023-04-20T00:48:17;98392.69;;;8.10;100.00
35226;BME280;21813;49.686;21.766;2023-04-20T00:50:48;98382.53;;;8.07;100.00
35226;BME280;21813;49.686;21.766;2023-04-20T00:53:13;98399.31;;;8.14;100.00
35226;BME280;21813;49.686;21.766;2023-04-20T00:55:42;98402.66;;;8.16;100.00
35226;BME280;21813;49.686;21.766;2023-04-20T00:58:08;98408.78;;;8.15;100.00
35226;BME280;21813;49.686;21.766;2023-04-20T01:00:33;98397.69;;;8.13;100.00
35226;BME280;21813;49.686;21.766;2023-04-20T01:03:00;98391.75;;;8.11;100.00
35226;BME280;21813;49.686;21.766;2023-04-20T01:05:26;98399.31;;;8.14;100.00
35226;BME280;21813;49.686;21.766;2023-04-20T01:07:51;98403.72;;;8.14;100.00
35226;BME280;21813;49.686;21.766;2023-04-20T01:10:17;98395.28;;;8.10;100.00
35226;BME280;21813;49.686;21.766;2023-04-20T01:12:43;98410.66;;;8.13;100.00
35226;BME280;21813;49.686;21.766;2023-04-20T01:15:10;98407.09;;;8.14;100.00
35226;BME280;21813;49.686;21.766;2023-04-20T01:17:36;98402.88;;;8.13;100.00
35226;BME280;21813;49.686;21.766;2023-04-20T01:20:07;98394.56;;;8.08;100.00
35226;BME280;21813;49.686;21.766;2023-04-20T01:22:46;98392.16;;;8.05;100.00
35226;BME280;21813;49.686;21.766;2023-04-20T01:25:15;98376.31;;;7.97;100.00
35226;BME280;21813;49.686;21.766;2023-04-20T01:27:41;98385.44;;;8.03;100.00
35226;BME280;21813;49.686;21.766;2023-04-20T01:30:09;98393.13;;;8.04;100.00
35226;BME280;21813;49.686;21.766;2023-04-20T01:32:34;98383.78;;;8.02;100.00
35226;BME280;21813;49.686;21.766;2023-04-20T01:35:02;98380.47;;;7.99;100.00
35226;BME280;21813;49.686;21.766;2023-04-20T01:37:28;98381.78;;;8.05;100.00
35226;BME280;21813;49.686;21.766;2023-04-20T01:39:54;98396.44;;;8.06;100.00
35226;BME280;21813;49.686;21.766;2023-04-20T01:42:21;98388.66;;;8.06;100.00
35226;BME280;21813;49.686;21.766;2023-04-20T01:44:48;98385.34;;;8.04;100.00
35226;BME280;21813;49.686;21.766;2023-04-20T01:47:14;98392.91;;;8.07;100.00
35226;BME280;21813;49.686;21.766;2023-04-20T01:49:40;98388.03;;;8.03;100.00
35226;BME280;21813;49.686;21.766;2023-04-20T01:52:07;98387.94;;;8.04;100.00
35226;BME280;21813;49.686;21.766;2023-04-20T01:54:34;98388.56;;;8.08;100.00
35226;BME280;21813;49.686;21.766;2023-04-20T01:57:02;98377.97;;;7.98;100.00
35226;BME280;21813;49.686;21.766;2023-04-20T01:59:28;98388.75;;;8.05;100.00
35226;BME280;21813;49.686;21.766;2023-04-20T02:01:54;98382.94;;;8.01;100.00
35226;BME280;21813;49.686;21.766;2023-04-20T02:04:21;98382.75;;;8.04;100.00
35226;BME280;21813;49.686;21.766;2023-04-20T02:06:47;98386.28;;;8.03;100.00
35226;BME280;21813;49.686;21.766;2023-04-20T02:09:14;98391.25;;;8.06;100.00
35226;BME280;21813;49.686;21.766;2023-04-20T02:11:39;98397.88;;;8.10;100.00
35226;BME280;21813;49.686;21.766;2023-04-20T02:14:06;98381.09;;;8.03;100.00
35226;BME280;21813;49.686;21.766;2023-04-20T02:16:31;98389.81;;;8.02;100.00
35226;BME280;21813;49.686;21.766;2023-04-20T02:18:57;98397.38;;;8.05;100.00
35226;BME280;21813;49.686;21.766;2023-04-20T02:21:23;98391.47;;;8.03;100.00
35226;BME280;21813;49.686;21.766;2023-04-20T02:23:49;98388.03;;;8.03;100.00
35226;BME280;21813;49.686;21.766;2023-04-20T02:26:14;98389.69;;;8.04;100.00
35226;BME280;21813;49.686;21.766;2023-04-20T02:28:41;98382.94;;;8.01;100.00
35226;BME280;21813;49.686;21.766;2023-04-20T02:31:07;98378.59;;;8.02;100.00
35226;BME280;21813;49.686;21.766;2023-04-20T02:33:33;98391.47;;;8.03;100.00
35226;BME280;21813;49.686;21.766;2023-04-20T02:35:59;98390.03;;;7.99;100.00
35226;BME280;21813;49.686;21.766;2023-04-20T02:38:25;98381.72;;;7.94;100.00
35226;BME280;21813;49.686;21.766;2023-04-20T02:40:51;98391.88;;;7.97;100.00
35226;BME280;21813;49.686;21.766;2023-04-20T02:43:17;98389.50;;;7.94;100.00
35226;BME280;21813;49.686;21.766;2023-04-20T02:45:43;98403.09;;;7.97;100.00
35226;BME280;21813;49.686;21.766;2023-04-20T02:48:08;98387.84;;;7.93;100.00
35226;BME280;21813;49.686;21.766;2023-04-20T02:50:34;98392.19;;;7.92;100.00
35226;BME280;21813;49.686;21.766;2023-04-20T02:53:00;98394.19;;;7.89;100.00
35226;BME280;21813;49.686;21.766;2023-04-20T02:55:26;98390.00;;;7.86;100.00
35226;BME280;21813;49.686;21.766;2023-04-20T02:57:52;98374.47;;;7.74;100.00
35226;BME280;21813;49.686;21.766;2023-04-20T03:00:18;98388.69;;;7.81;100.00
35226;BME280;21813;49.686;21.766;2023-04-20T03:02:46;98397.19;;;7.83;100.00
35226;BME280;21813;49.686;21.766;2023-04-20T03:05:12;98389.00;;;7.76;100.00
35226;BME280;21813;49.686;21.766;2023-04-20T03:07:39;98398.41;;;7.77;100.00
35226;BME280;21813;49.686;21.766;2023-04-20T03:10:05;98401.84;;;7.78;100.00
35226;BME280;21813;49.686;21.766;2023-04-20T03:12:32;98394.28;;;7.75;100.00
35226;BME280;21813;49.686;21.766;2023-04-20T03:14:58;98397.09;;;7.72;100.00
35226;BME280;21813;49.686;21.766;2023-04-20T03:17:24;98398.53;;;7.76;100.00
35226;BME280;21813;49.686;21.766;2023-04-20T03:19:50;98410.38;;;7.80;100.00
35226;BME280;21813;49.686;21.766;2023-04-20T03:22:17;98405.41;;;7.77;100.00
35226;BME280;21813;49.686;21.766;2023-04-20T03:24:46;98393.44;;;7.74;100.00
35226;BME280;21813;49.686;21.766;2023-04-20T03:27:14;98398.53;;;7.76;100.00
35226;BME280;21813;49.686;21.766;2023-04-20T03:29:40;98380.38;;;7.63;100.00
35226;BME280;21813;49.686;21.766;2023-04-20T03:32:07;98396.13;;;7.73;100.00
35226;BME280;21813;49.686;21.766;2023-04-20T03:34:33;98394.91;;;7.78;100.00
35226;BME280;21813;49.686;21.766;2023-04-20T03:37:00;98395.22;;;7.74;100.00
35226;BME280;21813;49.686;21.766;2023-04-20T03:39:26;98410.88;;;7.72;100.00
35226;BME280;21813;49.686;21.766;2023-04-20T03:41:52;98419.91;;;7.67;100.00
35226;BME280;21813;49.686;21.766;2023-04-20T03:44:18;98413.06;;;7.66;100.00
35226;BME280;21813;49.686;21.766;2023-04-20T03:46:45;98405.69;;;7.60;100.00
35226;BME280;21813;49.686;21.766;2023-04-20T03:49:10;98418.88;;;7.57;100.00
35226;BME280;21813;49.686;21.766;2023-04-20T03:51:38;98428.09;;;7.61;100.00
35226;BME280;21813;49.686;21.766;2023-04-20T03:54:04;98426.44;;;7.60;100.00
35226;BME280;21813;49.686;21.766;2023-04-20T03:56:31;98431.09;;;7.54;100.00
35226;BME280;21813;49.686;21.766;2023-04-20T03:58:57;98424.47;;;7.50;100.00
35226;BME280;21813;49.686;21.766;2023-04-20T04:01:24;98435.75;;;7.49;100.00
35226;BME280;21813;49.686;21.766;2023-04-20T04:03:51;98441.28;;;7.58;100.00
35226;BME280;21813;49.686;21.766;2023-04-20T04:06:18;98429.66;;;7.50;100.00
35226;BME280;21813;49.686;21.766;2023-04-20T04:08:43;98425.19;;;7.52;100.00
35226;BME280;21813;49.686;21.766;2023-04-20T04:11:09;98431.09;;;7.54;100.00
35226;BME280;21813;49.686;21.766;2023-04-20T04:13:35;98425.91;;;7.54;100.00
35226;BME280;21813;49.686;21.766;2023-04-20T04:16:02;98436.81;;;7.60;100.00
35226;BME280;21813;49.686;21.766;2023-04-20T04:18:29;98437.56;;;7.62;100.00
35226;BME280;21813;49.686;21.766;2023-04-20T04:20:58;98436.50;;;7.64;100.00
35226;BME280;21813;49.686;21.766;2023-04-20T04:23:23;98427.56;;;7.55;100.00
35226;BME280;21813;49.686;21.766;2023-04-20T04:25:50;98429.88;;;7.60;100.00
35226;BME280;21813;49.686;21.766;2023-04-20T04:28:16;98440.75;;;7.65;100.00
35226;BME280;21813;49.686;21.766;2023-04-20T04:30:45;98434.75;;;7.65;100.00
35226;BME280;21813;49.686;21.766;2023-04-20T04:33:11;98452.38;;;7.72;100.00
35226;BME280;21813;49.686;21.766;2023-04-20T04:35:39;98431.84;;;7.69;100.00
35226;BME280;21813;49.686;21.766;2023-04-20T04:38:05;98434.03;;;7.63;100.00
35226;BME280;21813;49.686;21.766;2023-04-20T04:40:33;98426.97;;;7.65;100.00
35226;BME280;21813;49.686;21.766;2023-04-20T04:42:58;98438.38;;;7.75;100.00
35226;BME280;21813;49.686;21.766;2023-04-20T04:45:25;98443.50;;;7.76;100.00
35226;BME280;21813;49.686;21.766;2023-04-20T04:47:52;98443.38;;;7.78;100.00
35226;BME280;21813;49.686;21.766;2023-04-20T04:50:18;98445.78;;;7.81;100.00
35226;BME280;21813;49.686;21.766;2023-04-20T04:52:44;98446.59;;;7.81;100.00
35226;BME280;21813;49.686;21.766;2023-04-20T04:55:12;98447.22;;;7.85;100.00
35226;BME280;21813;49.686;21.766;2023-04-20T04:57:37;98460.50;;;7.93;100.00
35226;BME280;21813;49.686;21.766;2023-04-20T05:00:05;98452.28;;;7.86;100.00
35226;BME280;21813;49.686;21.766;2023-04-20T05:02:34;98452.09;;;7.89;100.00
35226;BME280;21813;49.686;21.766;2023-04-20T05:05:02;98462.78;;;7.97;100.00
35226;BME280;21813;49.686;21.766;2023-04-20T05:07:28;98454.38;;;7.94;100.00
35226;BME280;21813;49.686;21.766;2023-04-20T05:09:54;98470.78;;;8.07;100.00
35226;BME280;21813;49.686;21.766;2023-04-20T05:12:20;98464.00;;;8.05;100.00
35226;BME280;21813;49.686;21.766;2023-04-20T05:14:46;98449.41;;;8.04;100.00
35226;BME280;21813;49.686;21.766;2023-04-20T05:17:12;98455.22;;;8.07;100.00
35226;BME280;21813;49.686;21.766;2023-04-20T05:19:39;98449.78;;;8.10;100.00
35226;BME280;21813;49.686;21.766;2023-04-20T05:22:04;98471.59;;;8.20;100.00
35226;BME280;21813;49.686;21.766;2023-04-20T05:24:32;98462.13;;;8.19;100.00
35226;BME280;21813;49.686;21.766;2023-04-20T05:26:57;98452.19;;;8.13;100.00
35226;BME280;21813;49.686;21.766;2023-04-20T05:29:24;98470.13;;;8.29;100.00
35226;BME280;21813;49.686;21.766;2023-04-20T05:31:50;98471.00;;;8.29;100.00
35226;BME280;21813;49.686;21.766;2023-04-20T05:34:16;98477.63;;;8.33;100.00
35226;BME280;21813;49.686;21.766;2023-04-20T05:36:41;98466.69;;;8.28;100.00
35226;BME280;21813;49.686;21.766;2023-04-20T05:39:08;98467.06;;;8.36;100.00
35226;BME280;21813;49.686;21.766;2023-04-20T05:41:34;98471.81;;;8.42;100.00
35226;BME280;21813;49.686;21.766;2023-04-20T05:44:01;98488.84;;;8.59;100.00
35226;BME280;21813;49.686;21.766;2023-04-20T05:46:27;98483.69;;;8.70;100.00
35226;BME280;21813;49.686;21.766;2023-04-20T05:48:55;98482.06;;;8.93;100.00
35226;BME280;21813;49.686;21.766;2023-04-20T05:51:21;98493.81;;;9.22;100.00
35226;BME280;21813;49.686;21.766;2023-04-20T05:53:48;98497.69;;;9.41;100.00
35226;BME280;21813;49.686;21.766;2023-04-20T05:56:14;98497.75;;;9.52;100.00
35226;BME280;21813;49.686;21.766;2023-04-20T05:58:45;98489.25;;;9.61;100.00
35226;BME280;21813;49.686;21.766;2023-04-20T06:01:10;98505.16;;;9.80;100.00
35226;BME280;21813;49.686;21.766;2023-04-20T06:03:36;98487.19;;;9.88;100.00
35226;BME280;21813;49.686;21.766;2023-04-20T06:06:02;98494.19;;;9.99;100.00
35226;BME280;21813;49.686;21.766;2023-04-20T06:08:40;98497.41;;;10.13;100.00
35226;BME280;21813;49.686;21.766;2023-04-20T06:11:06;98503.97;;;10.30;100.00
35226;BME280;21813;49.686;21.766;2023-04-20T06:13:32;98502.31;;;10.51;100.00
35226;BME280;21813;49.686;21.766;2023-04-20T06:15:58;98504.53;;;10.78;100.00
35226;BME280;21813;49.686;21.766;2023-04-20T06:18:24;98506.69;;;10.95;100.00
35226;BME280;21813;49.686;21.766;2023-04-20T06:20:49;98504.50;;;11.12;100.00
35226;BME280;21813;49.686;21.766;2023-04-20T06:23:15;98492.22;;;11.34;100.00
35226;BME280;21813;49.686;21.766;2023-04-20T06:25:41;98502.44;;;11.58;100.00
35226;BME280;21813;49.686;21.766;2023-04-20T06:28:07;98494.03;;;11.86;100.00
35226;BME280;21813;49.686;21.766;2023-04-20T06:30:33;98499.03;;;12.20;97.21
35226;BME280;21813;49.686;21.766;2023-04-20T06:33:00;98496.09;;;12.34;95.88
35226;BME280;21813;49.686;21.766;2023-04-20T06:35:26;98505.78;;;12.43;95.09
35226;BME280;21813;49.686;21.766;2023-04-20T06:37:52;98504.78;;;12.34;94.09
35226;BME280;21813;49.686;21.766;2023-04-20T06:40:18;98489.84;;;12.25;93.87
35226;BME280;21813;49.686;21.766;2023-04-20T06:42:44;98503.00;;;12.14;94.88
35226;BME280;21813;49.686;21.766;2023-04-20T06:45:10;98507.34;;;11.83;96.81
35226;BME280;21813;49.686;21.766;2023-04-20T06:47:36;98509.94;;;11.51;98.48
35226;BME280;21813;49.686;21.766;2023-04-20T06:50:04;98515.38;;;11.28;100.00
35226;BME280;21813;49.686;21.766;2023-04-20T06:55:31;98510.69;;;10.88;100.00
35226;BME280;21813;49.686;21.766;2023-04-20T06:57:57;98509.06;;;10.76;100.00
35226;BME280;21813;49.686;21.766;2023-04-20T07:00:23;98512.41;;;10.67;100.00
35226;BME280;21813;49.686;21.766;2023-04-20T07:02:53;98513.69;;;10.61;100.00
35226;BME280;21813;49.686;21.766;2023-04-20T07:05:19;98518.41;;;10.45;100.00
35226;BME280;21813;49.686;21.766;2023-04-20T07:07:45;98527.22;;;10.44;100.00
35226;BME280;21813;49.686;21.766;2023-04-20T07:10:12;98521.38;;;10.41;100.00
35226;BME280;21813;49.686;21.766;2023-04-20T07:12:39;98526.38;;;10.44;100.00
35226;BME280;21813;49.686;21.766;2023-04-20T07:15:06;98526.72;;;10.50;100.00
35226;BME280;21813;49.686;21.766;2023-04-20T07:17:32;98525.66;;;10.53;100.00
35226;BME280;21813;49.686;21.766;2023-04-20T07:19:58;98537.25;;;10.60;100.00
35226;BME280;21813;49.686;21.766;2023-04-20T07:22:34;98533.13;;;10.57;100.00
35226;BME280;21813;49.686;21.766;2023-04-20T07:25:06;98539.19;;;10.58;100.00
35226;BME280;21813;49.686;21.766;2023-04-20T07:27:36;98535.84;;;10.56;100.00
35226;BME280;21813;49.686;21.766;2023-04-20T07:30:02;98534.19;;;10.55;100.00
35226;BME280;21813;49.686;21.766;2023-04-20T07:32:28;98538.81;;;10.51;100.00
35226;BME280;21813;49.686;21.766;2023-04-20T07:34:54;98524.47;;;10.46;100.00
35226;BME280;21813;49.686;21.766;2023-04-20T07:37:21;98540.59;;;10.62;100.00
35226;BME280;21813;49.686;21.766;2023-04-20T07:39:46;98537.03;;;10.63;100.00
35226;BME280;21813;49.686;21.766;2023-04-20T07:42:13;98532.66;;;10.75;100.00
35226;BME280;21813;49.686;21.766;2023-04-20T07:44:38;98538.69;;;10.86;100.00
35226;BME280;21813;49.686;21.766;2023-04-20T07:47:04;98530.63;;;10.89;100.00
35226;BME280;21813;49.686;21.766;2023-04-20T07:49:30;98533.47;;;10.86;100.00
35226;BME280;21813;49.686;21.766;2023-04-20T07:51:56;98523.53;;;10.80;100.00
35226;BME280;21813;49.686;21.766;2023-04-20T07:54:21;98535.50;;;10.72;100.00
35226;BME280;21813;49.686;21.766;2023-04-20T07:56:47;98521.63;;;10.60;100.00
35226;BME280;21813;49.686;21.766;2023-04-20T07:59:13;98537.88;;;10.52;100.00
35226;BME280;21813;49.686;21.766;2023-04-20T08:01:39;98534.78;;;10.47;100.00
35226;BME280;21813;49.686;21.766;2023-04-20T08:04:05;98526.84;;;10.38;100.00
35226;BME280;21813;49.686;21.766;2023-04-20T08:06:31;98540.59;;;10.40;100.00
35226;BME280;21813;49.686;21.766;2023-04-20T08:08:58;98542.84;;;10.44;100.00
35226;BME280;21813;49.686;21.766;2023-04-20T08:11:24;98536.66;;;10.45;100.00
35226;BME280;21813;49.686;21.766;2023-04-20T08:13:51;98532.75;;;10.51;100.00
35226;BME280;21813;49.686;21.766;2023-04-20T08:16:17;98536.78;;;10.66;100.00
35226;BME280;21813;49.686;21.766;2023-04-20T08:18:42;98534.78;;;10.81;100.00
35226;BME280;21813;49.686;21.766;2023-04-20T08:21:08;98537.13;;;10.95;100.00
35226;BME280;21813;49.686;21.766;2023-04-20T08:23:34;98545.88;;;11.16;100.00
35226;BME280;21813;49.686;21.766;2023-04-20T08:26:00;98536.63;;;11.23;100.00
35226;BME280;21813;49.686;21.766;2023-04-20T08:28:25;98541.47;;;11.28;100.00
35226;BME280;21813;49.686;21.766;2023-04-20T08:30:52;98548.66;;;11.35;100.00
35226;BME280;21813;49.686;21.766;2023-04-20T08:33:18;98553.53;;;11.40;100.00
35226;BME280;21813;49.686;21.766;2023-04-20T08:35:44;98540.94;;;11.45;100.00
35226;BME280;21813;49.686;21.766;2023-04-20T08:38:10;98539.94;;;11.57;100.00
35226;BME280;21813;49.686;21.766;2023-04-20T08:40:36;98537.28;;;11.68;100.00
35226;BME280;21813;49.686;21.766;2023-04-20T08:43:02;98540.00;;;11.67;100.00
35226;BME280;21813;49.686;21.766;2023-04-20T08:45:29;98540.00;;;11.67;100.00
35226;BME280;21813;49.686;21.766;2023-04-20T08:47:57;98535.25;;;11.72;100.00
35226;BME280;21813;49.686;21.766;2023-04-20T08:50:24;98538.81;;;11.82;100.00
35226;BME280;21813;49.686;21.766;2023-04-20T08:52:50;98527.84;;;11.88;100.00
35226;BME280;21813;49.686;21.766;2023-04-20T08:55:17;98532.88;;;12.01;100.00
35226;BME280;21813;49.686;21.766;2023-04-20T08:57:42;98525.81;;;12.12;100.00
35226;BME280;21813;49.686;21.766;2023-04-20T09:00:09;98518.97;;;12.21;99.78
35226;BME280;21813;49.686;21.766;2023-04-20T09:02:55;98520.84;;;12.30;99.91
35226;BME280;21813;49.686;21.766;2023-04-20T09:05:27;98521.97;;;12.37;99.88
35226;BME280;21813;49.686;21.766;2023-04-20T09:07:58;98522.13;;;12.45;99.89
35226;BME280;21813;49.686;21.766;2023-04-20T09:10:26;98528.50;;;12.52;97.24
35226;BME280;21813;49.686;21.766;2023-04-20T09:13:02;98515.13;;;12.46;97.15
35226;BME280;21813;49.686;21.766;2023-04-20T09:15:30;98519.97;;;12.50;97.17
35226;BME280;21813;49.686;21.766;2023-04-20T09:17:56;98515.91;;;12.67;97.10
35226;BME280;21813;49.686;21.766;2023-04-20T09:20:30;98513.50;;;12.84;96.43
35226;BME280;21813;49.686;21.766;2023-04-20T09:22:56;98507.72;;;12.91;96.64
35226;BME280;21813;49.686;21.766;2023-04-20T09:25:23;98518.78;;;13.04;96.68
35226;BME280;21813;49.686;21.766;2023-04-20T09:27:57;98510.97;;;13.23;96.93
35226;BME280;21813;49.686;21.766;2023-04-20T09:30:24;98511.00;;;13.33;95.34
35226;BME280;21813;49.686;21.766;2023-04-20T09:33:03;98515.56;;;13.40;93.75
35226;BME280;21813;49.686;21.766;2023-04-20T09:35:29;98505.09;;;13.31;94.45
35226;BME280;21813;49.686;21.766;2023-04-20T09:37:55;98494.06;;;13.17;95.90
35226;BME280;21813;49.686;21.766;2023-04-20T09:40:24;98517.75;;;13.25;95.63
35226;BME280;21813;49.686;21.766;2023-04-20T09:42:52;98513.75;;;13.21;94.65
35226;BME280;21813;49.686;21.766;2023-04-20T09:45:18;98508.66;;;13.20;95.13
35226;BME280;21813;49.686;21.766;2023-04-20T09:47:44;98511.41;;;13.28;95.36
35226;BME280;21813;49.686;21.766;2023-04-20T09:50:12;98512.25;;;13.38;97.58
35226;BME280;21813;49.686;21.766;2023-04-20T09:52:38;98515.84;;;13.56;93.83
35226;BME280;21813;49.686;21.766;2023-04-20T09:55:05;98509.53;;;13.68;95.35
35226;BME280;21813;49.686;21.766;2023-04-20T09:57:34;98500.41;;;13.73;91.76
35226;BME280;21813;49.686;21.766;2023-04-20T10:00:01;98502.03;;;13.83;91.40
35226;BME280;21813;49.686;21.766;2023-04-20T10:02:30;98494.16;;;13.93;93.34
35226;BME280;21813;49.686;21.766;2023-04-20T10:04:57;98490.16;;;14.08;92.11
35226;BME280;21813;49.686;21.766;2023-04-20T10:07:28;98484.19;;;14.15;90.98
35226;BME280;21813;49.686;21.766;2023-04-20T10:12:31;98487.41;;;14.09;90.96
35226;BME280;21813;49.686;21.766;2023-04-20T10:14:58;98492.38;;;14.03;88.62
35226;BME280;21813;49.686;21.766;2023-04-20T10:17:30;98493.75;;;13.97;89.01
35226;BME280;21813;49.686;21.766;2023-04-20T10:19:56;98481.91;;;13.93;90.70
35226;BME280;21813;49.686;21.766;2023-04-20T10:22:29;98486.59;;;13.99;85.80
35226;BME280;21813;49.686;21.766;2023-04-20T10:25:13;98485.88;;;14.07;86.12
35226;BME280;21813;49.686;21.766;2023-04-20T10:27:55;98485.97;;;14.15;82.14
35226;BME280;21813;49.686;21.766;2023-04-20T10:30:22;98475.78;;;14.12;82.35
35226;BME280;21813;49.686;21.766;2023-04-20T10:32:48;98486.84;;;14.06;77.70
35226;BME280;21813;49.686;21.766;2023-04-20T10:35:14;98489.75;;;14.03;78.89
35226;BME280;21813;49.686;21.766;2023-04-20T10:37:50;98474.72;;;14.05;78.75
35226;BME280;21813;49.686;21.766;2023-04-20T10:40:24;98475.69;;;14.04;80.06
35226;BME280;21813;49.686;21.766;2023-04-20T10:42:53;98466.41;;;14.19;79.17
35226;BME280;21813;49.686;21.766;2023-04-20T10:45:19;98463.88;;;14.27;72.54
35226;BME280;21813;49.686;21.766;2023-04-20T10:47:46;98462.19;;;14.45;67.83
35226;BME280;21813;49.686;21.766;2023-04-20T10:50:13;98477.47;;;14.59;68.60
35226;BME280;21813;49.686;21.766;2023-04-20T10:52:41;98473.66;;;14.72;63.91
35226;BME280;21813;49.686;21.766;2023-04-20T10:55:21;98468.06;;;14.84;63.74
35226;BME280;21813;49.686;21.766;2023-04-20T10:57:48;98461.59;;;15.06;60.15
35226;BME280;21813;49.686;21.766;2023-04-20T11:00:15;98455.56;;;14.96;62.07
35226;BME280;21813;49.686;21.766;2023-04-20T11:02:49;98462.50;;;14.97;62.29
35226;BME280;21813;49.686;21.766;2023-04-20T11:05:16;98463.16;;;14.99;62.27
35226;BME280;21813;49.686;21.766;2023-04-20T11:10:23;98460.78;;;15.06;63.86
35226;BME280;21813;49.686;21.766;2023-04-20T11:12:51;98461.59;;;15.06;63.28
35226;BME280;21813;49.686;21.766;2023-04-20T11:15:17;98459.69;;;14.98;60.86
35226;BME280;21813;49.686;21.766;2023-04-20T11:17:43;98462.97;;;14.83;63.90
35226;BME280;21813;49.686;21.766;2023-04-20T11:20:14;98452.44;;;14.65;67.38
35226;BME280;21813;49.686;21.766;2023-04-20T11:22:43;98457.47;;;14.49;68.25
35226;BME280;21813;49.686;21.766;2023-04-20T11:25:11;98463.56;;;14.49;69.10
35226;BME280;21813;49.686;21.766;2023-04-20T11:27:37;98467.66;;;14.52;69.76
35226;BME280;21813;49.686;21.766;2023-04-20T11:30:05;98462.03;;;14.56;67.76
35226;BME280;21813;49.686;21.766;2023-04-20T11:32:33;98446.41;;;14.55;66.04
35226;BME280;21813;49.686;21.766;2023-04-20T11:35:04;98465.44;;;14.57;67.17
35226;BME280;21813;49.686;21.766;2023-04-20T11:37:32;98451.13;;;14.51;66.44
35226;BME280;21813;49.686;21.766;2023-04-20T11:40:03;98459.97;;;14.50;64.81
35226;BME280;21813;49.686;21.766;2023-04-20T11:42:35;98463.56;;;14.49;65.21
35226;BME280;21813;49.686;21.766;2023-04-20T11:45:01;98449.75;;;14.47;65.66
35226;BME280;21813;49.686;21.766;2023-04-20T11:47:27;98464.78;;;14.55;65.41
35226;BME280;21813;49.686;21.766;2023-04-20T11:49:53;98469.06;;;14.56;64.88
35226;BME280;21813;49.686;21.766;2023-04-20T11:52:19;98452.38;;;14.47;63.83
35226;BME280;21813;49.686;21.766;2023-04-20T11:54:44;98465.34;;;14.49;64.49
35226;BME280;21813;49.686;21.766;2023-04-20T11:57:10;98443.72;;;14.47;64.92
35226;BME280;21813;49.686;21.766;2023-04-20T11:59:36;98461.31;;;14.54;64.68
35226;BME280;21813;49.686;21.766;2023-04-20T12:02:02;98446.81;;;14.60;65.15
35226;BME280;21813;49.686;21.766;2023-04-20T12:04:30;98461.06;;;14.75;64.60
35226;BME280;21813;49.686;21.766;2023-04-20T12:06:57;98438.53;;;14.82;65.88
35226;BME280;21813;49.686;21.766;2023-04-20T12:09:27;98436.25;;;14.97;63.12
35226;BME280;21813;49.686;21.766;2023-04-20T12:11:53;98437.97;;;15.06;62.68
35226;BME280;21813;49.686;21.766;2023-04-20T12:14:18;98435.41;;;15.14;61.68
35226;BME280;21813;49.686;21.766;2023-04-20T12:16:44;98437.47;;;15.20;62.27
35226;BME280;21813;49.686;21.766;2023-04-20T12:19:10;98425.53;;;15.26;59.56
35226;BME280;21813;49.686;21.766;2023-04-20T12:21:36;98429.44;;;15.39;59.31
35226;BME280;21813;49.686;21.766;2023-04-20T12:24:02;98418.94;;;15.57;56.86
35226;BME280;21813;49.686;21.766;2023-04-20T12:26:28;98431.84;;;15.51;55.04
35226;BME280;21813;49.686;21.766;2023-04-20T12:28:54;98433.09;;;15.46;54.50
35226;BME280;21813;49.686;21.766;2023-04-20T12:31:21;98429.44;;;15.39;54.84
35226;BME280;21813;49.686;21.766;2023-04-20T12:33:49;98432.41;;;15.44;56.47
35226;BME280;21813;49.686;21.766;2023-04-20T12:36:14;98432.78;;;15.49;56.42
35226;BME280;21813;49.686;21.766;2023-04-20T12:38:40;98421.03;;;15.54;53.31
35226;BME280;21813;49.686;21.766;2023-04-20T12:41:06;98432.78;;;15.49;53.48
35226;BME280;21813;49.686;21.766;2023-04-20T12:43:32;98420.34;;;15.52;52.22
35226;BME280;21813;49.686;21.766;2023-04-20T12:45:58;98417.59;;;15.53;53.23
35226;BME280;21813;49.686;21.766;2023-04-20T12:48:24;98417.28;;;15.56;52.44
35226;BME280;21813;49.686;21.766;2023-04-20T12:50:49;98428.97;;;15.44;51.64
35226;BME280;21813;49.686;21.766;2023-04-20T12:53:15;98423.50;;;15.37;52.60
35226;BME280;21813;49.686;21.766;2023-04-20T12:55:41;98428.44;;;15.40;53.49